Metropolitan Oakland International Airport
KOAK : rendu visible

Aérodrome :











RETROUVEZ-NOUS SUR...

 
LOGIN :

S'inscrire | Disclaimer

   EN    FR    IT 

 









Légende :    VFR   VFR Marginal   IFR   IFR Intensif   IFR Très Intensif
Visi : 
Plafond : 
>= 8 km
>= 3000ft
5 à 8 km
1000 à 3000 ft
1500m à 5 km
500 à 1000 ft
800 à 1500m
200 à 500 ft
< 800m
< 200 ft
Symboles :   Orages  Brouillard  Fortes neiges  Fortes précipitations  Vent > 20 kt






- Altitude de l'aérodrome : 9 ft
- Code IATA : OAK


KOAK - Metropolitan Oakland International

DERNIER METAR :
  • 100853Z 08004KT 10SM FEW018 BKN250 11/07 A3022 RMK AO2 SLP233 T01060072 50003

METARs EXPIRÉS :
  • 100823Z 09004KT 10SM SCT018 BKN250 11/07 A3022 RMK AO2 T01110072
  • 100753Z 07004KT 10SM BKN018 12/08 A3023 RMK AO2 SLP236 T01170078 401440078
  • 100653Z 10005KT 10SM OVC018 12/08 A3023 RMK AO2 SLP234 T01220083

TAF KOAK
Valide du 10 à 06h jusqu'au 11 à 12h UTC


100540Z 1006/1112 VRB03KT P6SM OVC015
FM100800 VRB03KT 6SM BR OVC010
TEMPO 1012/1016 2SM BR OVC002
FM101800 VRB03KT P6SM OVC025
FM102200 27006KT P6SM BKN030 BKN050
FM110200 13004KT 6SM -RA OVC030



MET'MAP, la Météo Aéronautique d'un coup d'oeil ! - Copyright ORBIFLY Décembre 2007 - Disclaimer

ORBIFLY MET'MAP TEAM :

Programmation & Développement : Alexandra Zaïnal
Sur une idée originale de : Baudouin d'Aumeries
Assistance à la programmation : Marc-Olivier Méhu
Soutien technique & logistique : Manuel Goepfert

Contact : metmap@orbifly.com




SOURCES & CREDITS :

   NOAA       Earth
Advisory